Time;durP1;ratioP1;P1;durP2;ratioP2;P2;SDS_P1;SDS_P2;PMS_P1;PMS_P2;Temp;Humidity;BMP_temperature;BMP_pressure;BME280_temperature;BME280_humidity;BME280_pressure;Samples;Min_cycle;Max_cycle;Signal;HPM_P1;HPM_P2
2023/12/27 00:01:47;;;;;;;5.40;0.90;;;;;;;5.63;61.48;101800.53;4995260;28;97328;-52
2023/12/27 00:04:13;;;;;;;4.30;1.27;;;;;;;5.61;61.42;101800.22;4990471;28;97303;-52
2023/12/27 00:06:39;;;;;;;1.10;0.80;;;;;;;5.59;61.47;101796.41;4995160;28;97304;-52
2023/12/27 00:09:05;;;;;;;1.93;0.60;;;;;;;5.56;61.44;101801.56;4996394;28;96776;-52
2023/12/27 00:11:30;;;;;;;3.13;0.80;;;;;;;5.51;61.49;101804.16;4995610;28;97100;-52
2023/12/27 00:13:55;;;;;;;4.83;1.27;;;;;;;5.45;61.52;101812.22;4992489;28;99507;-52
2023/12/27 00:16:21;;;;;;;7.80;1.63;;;;;;;5.47;61.56;101807.06;4992759;28;96743;-52
2023/12/27 00:18:46;;;;;;;5.93;1.20;;;;;;;5.45;61.55;101805.97;4995456;28;97010;-52
2023/12/27 00:21:12;;;;;;;6.20;0.90;;;;;;;5.43;61.59;101800.91;4995527;28;97246;-52
2023/12/27 00:23:37;;;;;;;3.53;0.80;;;;;;;5.44;61.53;101813.44;4996903;28;98535;-52
2023/12/27 00:26:02;;;;;;;1.80;0.80;;;;;;;5.43;61.51;101814.66;4994373;28;97252;-52
2023/12/27 00:28:28;;;;;;;2.57;0.80;;;;;;;5.41;61.40;101813.59;4996756;28;101285;-52
2023/12/27 00:30:53;;;;;;;5.03;1.27;;;;;;;5.40;61.40;101821.06;4993335;28;97798;-52
2023/12/27 00:33:19;;;;;;;6.87;1.07;;;;;;;5.36;61.21;101817.69;4995072;28;96729;-52
2023/12/27 00:35:44;;;;;;;5.07;1.20;;;;;;;5.35;61.40;101823.59;4994956;28;97413;-52
2023/12/27 00:38:10;;;;;;;5.27;1.33;;;;;;;5.33;61.50;101826.81;4996743;28;96712;-52
2023/12/27 00:40:35;;;;;;;8.63;1.27;;;;;;;5.32;61.41;101828.00;4995662;28;96723;-52
2023/12/27 00:43:00;;;;;;;7.23;0.93;;;;;;;5.36;61.60;101830.63;4993829;28;99411;-52
2023/12/27 00:45:26;;;;;;;4.40;0.93;;;;;;;5.37;61.45;101838.41;4995752;28;96935;-52
2023/12/27 00:47:52;;;;;;;2.93;0.90;;;;;;;5.41;61.52;101843.78;4993534;28;97268;-53
2023/12/27 00:50:17;;;;;;;3.50;1.00;;;;;;;5.44;61.40;101843.63;4992666;28;97208;-52
2023/12/27 00:52:43;;;;;;;8.33;1.57;;;;;;;5.45;61.53;101845.13;4996849;28;98394;-52
2023/12/27 00:55:08;;;;;;;6.50;0.93;;;;;;;5.44;61.42;101848.34;4992681;28;97108;-53
2023/12/27 00:57:33;;;;;;;8.33;1.23;;;;;;;5.46;61.44;101851.41;4994948;28;96829;-52
2023/12/27 00:59:59;;;;;;;3.60;1.20;;;;;;;5.47;61.35;101864.69;4993602;28;97009;-52
2023/12/27 01:02:25;;;;;;;2.10;0.80;;;;;;;5.45;61.26;101861.59;4994972;28;97638;-52
2023/12/27 01:04:52;;;;;;;4.47;1.03;;;;;;;5.42;61.29;101856.28;4994315;28;96909;-52
2023/12/27 01:07:18;;;;;;;5.17;1.10;;;;;;;5.38;61.30;101856.41;4994295;28;97135;-52
2023/12/27 01:09:44;;;;;;;4.87;0.87;;;;;;;5.38;61.43;101866.63;4994449;28;96704;-52
2023/12/27 01:12:10;;;;;;;6.20;1.47;;;;;;;5.37;61.43;101876.84;4992538;28;97595;-52
2023/12/27 01:14:36;;;;;;;2.43;0.93;;;;;;;5.33;61.39;101876.22;4995777;28;98151;-52
2023/12/27 01:17:01;;;;;;;2.70;1.07;;;;;;;5.31;61.34;101881.38;4994985;28;96721;-52
2023/12/27 01:19:26;;;;;;;2.20;0.90;;;;;;;5.29;61.34;101881.06;4994940;28;96870;-52
2023/12/27 01:21:52;;;;;;;3.70;0.77;;;;;;;5.29;61.50;101886.56;4993199;28;97978;-52
2023/12/27 01:24:17;;;;;;;10.43;1.77;;;;;;;5.27;61.46;101894.47;4995727;28;97667;-52
2023/12/27 01:26:42;;;;;;;2.23;0.70;;;;;;;5.28;61.15;101896.00;4994472;28;97170;-52
2023/12/27 01:29:08;;;;;;;2.77;1.30;;;;;;;5.28;61.43;101898.72;4995441;28;97431;-52
2023/12/27 01:31:33;;;;;;;4.30;1.03;;;;;;;5.29;61.21;101896.75;4994970;28;97513;-52
2023/12/27 01:33:59;;;;;;;6.27;1.63;;;;;;;5.28;61.51;101906.97;4994212;28;98425;-52
2023/12/27 01:36:24;;;;;;;1.70;0.93;;;;;;;5.27;61.18;101902.72;4994706;28;97162;-52
2023/12/27 01:38:49;;;;;;;3.63;1.10;;;;;;;5.24;61.36;101895.34;4994640;28;97290;-52
2023/12/27 01:41:15;;;;;;;5.47;1.07;;;;;;;5.22;61.22;101900.53;4992749;28;106160;-52
2023/12/27 01:43:40;;;;;;;4.00;1.33;;;;;;;5.19;61.33;101900.69;4994388;28;96723;-52
2023/12/27 01:46:06;;;;;;;4.53;0.97;;;;;;;5.16;61.45;101905.06;4992983;28;97267;-52
2023/12/27 01:48:32;;;;;;;5.07;0.80;;;;;;;5.11;61.59;101900.16;4990916;28;97278;-52
2023/12/27 01:50:59;;;;;;;5.80;1.00;;;;;;;5.07;61.46;101904.25;4992557;28;97569;-52
2023/12/27 01:53:25;;;;;;;10.50;1.63;;;;;;;5.02;61.43;101902.84;4995873;28;97636;-52
2023/12/27 01:55:51;;;;;;;5.70;1.07;;;;;;;4.99;61.55;101911.97;4992526;28;96737;-52
2023/12/27 01:58:17;;;;;;;2.90;0.90;;;;;;;4.94;61.63;101907.06;4994456;28;96691;-52
2023/12/27 02:00:45;;;;;;;6.97;0.90;;;;;;;4.89;61.48;101910.38;4994398;28;98660;-52
2023/12/27 02:03:11;;;;;;;9.07;1.13;;;;;;;4.87;61.72;101915.53;4991361;28;98468;-53
2023/12/27 02:05:37;;;;;;;2.53;0.87;;;;;;;4.84;61.61;101910.97;4994890;28;96720;-53
2023/12/27 02:08:04;;;;;;;2.00;1.03;;;;;;;4.80;61.85;101911.06;4991409;28;96839;-52
2023/12/27 02:10:30;;;;;;;7.27;0.93;;;;;;;4.77;61.58;101905.72;4993046;28;96828;-52
2023/12/27 02:12:56;;;;;;;3.53;0.70;;;;;;;4.77;61.68;101905.72;4991609;28;97470;-52
2023/12/27 02:15:21;;;;;;;7.97;1.30;;;;;;;4.75;61.66;101908.91;4993952;28;96965;-52
2023/12/27 02:17:48;;;;;;;1.67;1.03;;;;;;;4.72;61.64;101903.50;4993238;28;97119;-52
2023/12/27 02:20:14;;;;;;;4.63;0.80;;;;;;;4.68;61.77;101905.63;4994080;28;97734;-52
2023/12/27 02:22:43;;;;;;;3.87;0.77;;;;;;;4.68;61.86;101900.91;4991558;28;97615;-52
2023/12/27 02:25:09;;;;;;;6.30;1.30;;;;;;;4.65;61.72;101901.00;4991664;28;96977;-52
2023/12/27 02:27:35;;;;;;;3.63;0.90;;;;;;;4.64;61.67;101892.06;4992718;28;97055;-52
2023/12/27 02:30:00;;;;;;;4.70;1.00;;;;;;;4.60;61.51;101891.38;4994233;28;96665;-52
2023/12/27 02:32:26;;;;;;;2.30;1.10;;;;;;;4.57;61.68;101899.75;4994844;28;97189;-52
2023/12/27 02:34:52;;;;;;;3.37;1.33;;;;;;;4.51;61.86;101887.81;4996840;28;96691;-52
2023/12/27 02:37:17;;;;;;;3.70;0.67;;;;;;;4.48;61.65;101896.91;4997911;28;96786;-52
2023/12/27 02:39:42;;;;;;;6.80;1.03;;;;;;;4.45;61.69;101895.09;4997491;28;99649;-52
2023/12/27 02:42:08;;;;;;;4.00;1.00;;;;;;;4.43;61.82;101889.28;4997543;28;97530;-52
2023/12/27 02:44:34;;;;;;;2.33;0.80;;;;;;;4.40;61.85;101888.19;4997092;28;97089;-52
2023/12/27 02:47:01;;;;;;;4.40;1.13;;;;;;;4.39;62.02;101897.59;5000502;28;97301;-52
2023/12/27 02:49:27;;;;;;;2.93;0.77;;;;;;;4.36;62.05;101884.03;4994410;28;97821;-52
2023/12/27 02:51:52;;;;;;;2.20;0.87;;;;;;;4.35;62.15;101880.53;4996199;28;96995;-52
2023/12/27 02:54:17;;;;;;;9.97;1.23;;;;;;;4.34;61.81;101875.50;4995660;28;96881;-52
2023/12/27 02:56:43;;;;;;;6.33;1.17;;;;;;;4.32;61.88;101880.66;4996590;28;100316;-52
2023/12/27 02:59:09;;;;;;;6.40;1.03;;;;;;;4.29;62.03;101884.28;4995586;28;97783;-52
2023/12/27 03:01:34;;;;;;;3.53;1.37;;;;;;;4.24;61.98;101882.09;4999655;28;97155;-52
2023/12/27 03:03:59;;;;;;;4.77;0.90;;;;;;;4.20;62.12;101884.19;4995895;28;97491;-52
2023/12/27 03:06:25;;;;;;;5.43;1.03;;;;;;;4.19;61.90;101879.94;4996366;28;97143;-52
2023/12/27 03:08:52;;;;;;;5.50;1.00;;;;;;;4.15;61.99;101882.00;4994048;28;98605;-52
2023/12/27 03:11:18;;;;;;;1.80;0.90;;;;;;;4.13;62.06;101885.19;4996354;28;98358;-52
2023/12/27 03:13:43;;;;;;;2.50;0.93;;;;;;;4.12;62.23;101877.41;4994988;28;96836;-52
2023/12/27 03:16:09;;;;;;;8.27;1.03;;;;;;;4.10;62.24;101874.34;4996337;28;97276;-52
2023/12/27 03:18:35;;;;;;;6.70;1.07;;;;;;;4.08;62.09;101881.03;4993541;28;97451;-52
2023/12/27 03:21:01;;;;;;;3.63;1.00;;;;;;;4.06;62.03;101872.50;4993831;28;98345;-52
2023/12/27 03:23:26;;;;;;;7.30;1.10;;;;;;;4.02;62.05;101877.31;4997199;28;97027;-52
2023/12/27 03:25:53;;;;;;;7.13;1.30;;;;;;;3.96;61.77;101875.56;4997306;28;97162;-52
2023/12/27 03:28:19;;;;;;;5.40;0.93;;;;;;;3.91;61.86;101881.59;4996017;28;98702;-52
2023/12/27 03:30:44;;;;;;;5.37;0.90;;;;;;;3.82;61.94;101881.50;4994266;28;97685;-52
2023/12/27 03:33:10;;;;;;;5.40;1.50;;;;;;;3.74;62.13;101875.50;4994476;28;97355;-52
2023/12/27 03:35:35;;;;;;;2.20;0.87;;;;;;;3.70;61.96;101863.91;4992699;28;97139;-52
2023/12/27 03:38:00;;;;;;;1.40;0.90;;;;;;;3.67;62.33;101874.94;4992799;28;97887;-52
2023/12/27 03:40:26;;;;;;;1.97;0.60;;;;;;;3.62;62.20;101886.47;4993699;28;97526;-52
2023/12/27 03:42:51;;;;;;;3.03;0.67;;;;;;;3.60;62.37;101875.19;4995229;28;96982;-52
2023/12/27 03:45:18;;;;;;;4.40;0.90;;;;;;;3.56;62.00;101880.75;4993705;28;98543;-52
2023/12/27 03:47:44;;;;;;;5.37;0.80;;;;;;;3.52;62.27;101884.78;4994087;28;97206;-53
2023/12/27 03:50:11;;;;;;;4.87;1.40;;;;;;;3.49;62.29;101880.97;4995124;28;96778;-52
2023/12/27 03:52:36;;;;;;;5.13;0.87;;;;;;;3.48;62.38;101878.66;4996754;28;97244;-52
2023/12/27 03:55:02;;;;;;;4.23;0.77;;;;;;;3.46;62.43;101881.84;4997454;28;97191;-52
2023/12/27 03:57:27;;;;;;;9.70;1.00;;;;;;;3.44;62.34;101881.53;4993513;28;97276;-52
2023/12/27 03:59:52;;;;;;;0.70;0.50;;;;;;;3.41;62.40;101884.34;4995543;28;97203;-52
2023/12/27 04:02:18;;;;;;;4.83;1.10;;;;;;;3.38;62.20;101893.44;4993038;28;97193;-52
2023/12/27 04:04:46;;;;;;;5.13;0.80;;;;;;;3.34;62.20;101890.78;4994840;28;97008;-52
2023/12/27 04:07:11;;;;;;;3.13;0.83;;;;;;;3.27;62.23;101888.28;4995795;28;97607;-52
2023/12/27 04:09:39;;;;;;;2.30;0.90;;;;;;;3.24;62.43;101867.28;4995204;28;97844;-52
2023/12/27 04:12:05;;;;;;;3.03;0.90;;;;;;;3.22;62.10;101862.25;4995790;28;99178;-52
2023/12/27 04:14:30;;;;;;;3.80;0.90;;;;;;;3.18;62.37;101877.22;4994499;28;97101;-52
2023/12/27 04:16:56;;;;;;;1.73;0.80;;;;;;;3.15;62.17;101878.84;4995288;28;97337;-52
2023/12/27 04:19:21;;;;;;;1.40;0.70;;;;;;;3.13;62.08;101877.75;4993566;28;106386;-52
2023/12/27 04:21:46;;;;;;;1.90;1.00;;;;;;;3.09;62.27;101877.09;4996538;28;97121;-52
2023/12/27 04:24:12;;;;;;;5.50;1.10;;;;;;;3.05;62.35;101876.44;4992870;28;97266;-52
2023/12/27 04:26:39;;;;;;;4.67;1.40;;;;;;;2.99;62.38;101872.69;4994436;28;98547;-51
2023/12/27 04:29:07;;;;;;;3.73;1.20;;;;;;;2.93;62.50;101872.47;4995472;28;97036;-52
2023/12/27 04:31:32;;;;;;;3.80;1.33;;;;;;;2.92;62.52;101872.91;4992260;28;97384;-52
2023/12/27 04:33:57;;;;;;;6.37;1.40;;;;;;;2.89;62.40;101873.75;4993830;28;96929;-52
2023/12/27 04:36:23;;;;;;;7.00;1.23;;;;;;;2.87;62.33;101878.91;4990996;28;103644;-52
2023/12/27 04:38:48;;;;;;;4.20;1.40;;;;;;;2.85;62.44;101881.31;4995011;28;97156;-52
2023/12/27 04:41:14;;;;;;;5.00;1.30;;;;;;;2.81;62.61;101884.13;4992389;28;97614;-52
2023/12/27 04:43:39;;;;;;;3.97;1.23;;;;;;;2.79;62.84;101893.97;4994447;28;96718;-52
2023/12/27 04:46:06;;;;;;;4.50;1.13;;;;;;;2.76;62.37;101903.00;4994519;28;97479;-52
2023/12/27 04:48:32;;;;;;;4.43;1.70;;;;;;;2.73;62.51;101906.59;4995562;28;98493;-52
2023/12/27 04:50:58;;;;;;;2.67;1.70;;;;;;;2.71;62.43;101909.00;4995205;28;97026;-52
2023/12/27 04:53:23;;;;;;;1.97;1.27;;;;;;;2.67;62.53;101909.09;4993190;28;97345;-52
2023/12/27 04:55:48;;;;;;;3.40;1.10;;;;;;;2.63;62.41;101910.41;4994876;28;97365;-52
2023/12/27 04:58:14;;;;;;;3.33;1.30;;;;;;;2.58;62.56;101911.69;4994056;28;97683;-52
2023/12/27 05:00:39;;;;;;;2.70;1.20;;;;;;;2.52;62.02;101914.19;4994661;28;96777;-52
2023/12/27 05:03:05;;;;;;;1.90;1.20;;;;;;;2.50;62.50;101915.81;4996107;28;97053;-52
2023/12/27 05:05:30;;;;;;;3.53;1.37;;;;;;;2.47;62.39;101914.69;4996684;28;98571;-52
2023/12/27 05:07:55;;;;;;;3.10;1.00;;;;;;;2.44;62.19;101918.28;4997624;28;97096;-52
2023/12/27 05:10:21;;;;;;;6.00;1.40;;;;;;;2.38;62.56;101908.28;4992725;28;97150;-52
2023/12/27 05:12:46;;;;;;;4.93;1.30;;;;;;;2.36;62.37;101927.84;4995859;28;97441;-52
2023/12/27 05:15:12;;;;;;;2.77;1.07;;;;;;;2.38;62.57;101928.19;4994868;28;97055;-52
2023/12/27 05:17:37;;;;;;;5.13;1.60;;;;;;;2.37;62.36;101921.22;4994709;28;97809;-52
2023/12/27 05:20:03;;;;;;;5.53;1.27;;;;;;;2.37;62.59;101918.47;4992942;28;96723;-52
2023/12/27 05:22:33;;;;;;;2.73;0.97;;;;;;;2.40;62.58;101925.03;4994589;28;96915;-52
2023/12/27 05:24:59;;;;;;;4.30;0.90;;;;;;;2.36;62.61;101906.00;4996282;28;96659;-52
2023/12/27 05:27:24;;;;;;;1.80;0.57;;;;;;;2.34;62.49;101918.56;4994018;28;98335;-52
2023/12/27 05:29:50;;;;;;;1.27;0.73;;;;;;;2.33;62.89;101917.00;4994356;28;97051;-52
2023/12/27 05:32:15;;;;;;;2.27;0.87;;;;;;;2.34;62.78;101904.91;4995260;28;97853;-52
2023/12/27 05:34:40;;;;;;;1.00;0.80;;;;;;;2.31;62.61;101906.50;4994798;28;101440;-52
2023/12/27 05:37:06;;;;;;;5.10;0.87;;;;;;;2.29;62.81;101906.16;4996452;28;96979;-52
2023/12/27 05:39:31;;;;;;;1.53;0.80;;;;;;;2.26;62.64;101898.84;4992350;28;97206;-52
2023/12/27 05:41:57;;;;;;;0.80;0.70;;;;;;;2.24;62.27;101901.22;4992441;28;97244;-52
2023/12/27 05:44:22;;;;;;;1.50;0.80;;;;;;;2.21;62.48;101904.03;4993707;28;97939;-52
2023/12/27 05:46:47;;;;;;;3.00;1.10;;;;;;;2.18;62.70;101908.38;4992129;28;97202;-52
2023/12/27 05:49:13;;;;;;;2.67;0.87;;;;;;;2.10;62.73;101898.84;4993384;28;96803;-52
2023/12/27 05:51:39;;;;;;;3.90;0.63;;;;;;;2.06;62.38;101903.63;4993362;28;97410;-52
2023/12/27 05:54:05;;;;;;;3.47;0.87;;;;;;;2.05;62.83;101902.06;4991458;28;98505;-52
2023/12/27 05:56:30;;;;;;;2.70;0.83;;;;;;;2.06;62.75;101903.63;4993271;28;97258;-52
2023/12/27 05:58:56;;;;;;;4.50;0.90;;;;;;;2.06;62.84;101892.69;4993286;28;97169;-52
2023/12/27 06:01:21;;;;;;;1.30;0.60;;;;;;;2.12;62.63;101909.31;4993096;28;97124;-52
2023/12/27 06:03:47;;;;;;;3.33;0.93;;;;;;;2.15;63.06;101911.97;4998619;28;97430;-52
2023/12/27 06:06:12;;;;;;;4.20;1.20;;;;;;;2.13;62.91;101921.78;4988567;28;98860;-52
2023/12/27 06:08:38;;;;;;;2.30;0.80;;;;;;;2.15;62.70;101911.97;4992749;28;96884;-52
2023/12/27 06:11:03;;;;;;;4.10;1.00;;;;;;;2.14;62.80;101904.97;4994510;28;96856;-52
2023/12/27 06:13:28;;;;;;;3.63;1.20;;;;;;;2.12;62.53;101906.59;4993939;28;97471;-52
2023/12/27 06:15:54;;;;;;;3.00;0.97;;;;;;;2.10;62.76;101898.84;4992648;28;97050;-52
2023/12/27 06:18:19;;;;;;;7.60;0.80;;;;;;;2.10;62.82;101896.09;4993024;28;96670;-53
2023/12/27 06:20:45;;;;;;;1.60;0.87;;;;;;;2.11;62.61;101896.88;4994453;28;96839;-52
2023/12/27 06:23:10;;;;;;;0.90;0.77;;;;;;;2.12;62.60;101904.63;4993433;28;97142;-51
2023/12/27 06:25:35;;;;;;;5.03;1.30;;;;;;;2.16;62.90;101901.81;4994023;28;97454;-52
2023/12/27 06:28:01;;;;;;;1.97;1.10;;;;;;;2.18;62.65;101908.38;4993187;28;96918;-51
2023/12/27 06:30:27;;;;;;;2.27;0.87;;;;;;;2.17;62.66;101904.13;4990729;28;96924;-52
2023/12/27 06:32:53;;;;;;;6.40;0.83;;;;;;;2.14;62.84;101899.50;4991991;28;97099;-52
2023/12/27 06:35:18;;;;;;;4.27;0.90;;;;;;;2.10;62.59;101898.06;4994251;28;97091;-52
2023/12/27 06:37:44;;;;;;;3.27;0.90;;;;;;;2.08;62.46;101901.22;4993653;28;96932;-52
2023/12/27 06:40:10;;;;;;;2.30;0.77;;;;;;;2.06;62.38;101902.84;4992106;28;97536;-52
2023/12/27 06:42:35;;;;;;;3.20;0.87;;;;;;;2.01;62.71;101895.94;4993692;28;98449;-52
2023/12/27 06:45:01;;;;;;;2.13;0.70;;;;;;;1.98;62.83;101896.81;4994315;28;96626;-52
2023/12/27 06:47:26;;;;;;;0.80;0.70;;;;;;;1.94;62.54;101887.91;4992317;28;96879;-52
2023/12/27 06:49:51;;;;;;;5.83;0.83;;;;;;;1.92;62.81;101893.03;4995608;28;97401;-52
2023/12/27 06:52:17;;;;;;;3.80;0.70;;;;;;;1.88;62.67;101894.31;4992826;28;97402;-52
2023/12/27 06:54:42;;;;;;;5.30;1.07;;;;;;;1.85;62.54;101889.72;4993114;28;97555;-52
2023/12/27 06:57:07;;;;;;;2.70;0.63;;;;;;;1.81;62.38;101887.03;4994044;28;97550;-51
2023/12/27 06:59:33;;;;;;;1.90;0.90;;;;;;;1.79;62.89;101883.97;4992480;28;97085;-52
2023/12/27 07:01:58;;;;;;;3.07;1.20;;;;;;;1.75;62.79;101894.22;4992533;28;96827;-52
2023/12/27 07:04:23;;;;;;;3.37;0.90;;;;;;;1.80;62.72;101893.72;4993767;28;97153;-52
2023/12/27 07:06:49;;;;;;;3.80;0.93;;;;;;;1.80;62.97;101891.75;4994995;28;97308;-52
2023/12/27 07:09:16;;;;;;;8.43;1.10;;;;;;;1.82;62.84;101894.06;4995958;28;97311;-52
2023/12/27 07:11:41;;;;;;;2.90;1.10;;;;;;;1.81;62.77;101895.22;4992350;28;97337;-52
2023/12/27 07:14:07;;;;;;;3.43;1.00;;;;;;;1.80;62.54;101896.44;4992114;28;98570;-52
2023/12/27 07:16:33;;;;;;;2.10;0.77;;;;;;;1.79;62.94;101895.66;4988961;28;96742;-52
2023/12/27 07:18:59;;;;;;;3.00;1.07;;;;;;;1.79;62.98;101895.66;4994314;28;99489;-51
2023/12/27 07:21:24;;;;;;;1.37;0.77;;;;;;;1.82;62.93;101910.44;4994020;28;98717;-52
2023/12/27 07:23:49;;;;;;;4.60;0.70;;;;;;;1.81;63.06;101904.19;4996058;28;97347;-52
2023/12/27 07:26:15;;;;;;;1.30;0.60;;;;;;;1.80;62.81;101899.94;4998435;28;97134;-52
2023/12/27 07:28:40;;;;;;;2.53;0.90;;;;;;;1.75;62.87;101899.66;4995910;28;97178;-52
2023/12/27 07:31:07;;;;;;;2.80;1.07;;;;;;;1.71;62.99;101909.91;4994947;28;97241;-52
2023/12/27 07:33:36;;;;;;;4.80;1.33;;;;;;;1.66;62.83;101894.81;4994772;28;98030;-52
2023/12/27 07:36:01;;;;;;;4.07;1.07;;;;;;;1.66;63.00;101899.47;4998697;28;96934;-52
2023/12/27 07:38:27;;;;;;;2.77;0.80;;;;;;;1.68;63.37;101900.59;4993456;28;97122;-52
2023/12/27 07:40:52;;;;;;;3.00;0.90;;;;;;;1.71;63.22;101904.44;4993215;28;97321;-52
2023/12/27 07:43:22;;;;;;;2.73;0.70;;;;;;;1.72;63.08;101909.47;4997402;28;96722;-52
2023/12/27 07:45:47;;;;;;;5.70;1.10;;;;;;;1.73;63.06;101915.69;4995179;28;97449;-52
2023/12/27 07:48:13;;;;;;;2.60;0.70;;;;;;;1.80;63.57;101912.81;4995207;28;96678;-52
2023/12/27 07:50:39;;;;;;;6.03;0.80;;;;;;;1.83;63.03;101915.44;4997234;28;97271;-52
2023/12/27 07:53:05;;;;;;;2.90;0.70;;;;;;;1.87;63.45;101918.13;4996549;28;96735;-52
2023/12/27 07:55:31;;;;;;;3.70;1.20;;;;;;;1.90;63.54;101916.47;4992063;28;97054;-52
2023/12/27 07:57:56;;;;;;;3.33;1.57;;;;;;;1.94;63.29;101922.63;5002003;28;96733;-52
2023/12/27 08:00:21;;;;;;;2.00;1.00;;;;;;;1.96;63.35;101918.25;4994106;28;96696;-52
2023/12/27 08:02:47;;;;;;;2.13;0.97;;;;;;;1.99;63.26;101922.09;4994605;28;97260;-52
2023/12/27 08:05:12;;;;;;;6.13;1.50;;;;;;;2.02;63.12;101918.53;4994743;28;97369;-52
2023/12/27 08:07:38;;;;;;;3.63;1.67;;;;;;;2.04;63.41;101949.69;4992620;28;96541;-52
2023/12/27 08:10:04;;;;;;;1.37;1.27;;;;;;;2.09;63.36;101923.84;4995094;28;98746;-52
2023/12/27 08:12:30;;;;;;;3.10;1.20;;;;;;;2.12;63.55;101931.16;4994281;28;96720;-52
2023/12/27 08:14:56;;;;;;;2.90;1.20;;;;;;;2.15;63.77;101922.91;4995307;28;96701;-52
2023/12/27 08:17:22;;;;;;;2.30;1.00;;;;;;;2.19;63.48;101923.56;4996193;28;97014;-52
2023/12/27 08:19:47;;;;;;;4.80;1.00;;;;;;;2.21;63.38;101932.09;4996091;28;98025;-52
2023/12/27 08:22:13;;;;;;;1.63;0.73;;;;;;;2.21;63.46;101923.13;4994364;28;97092;-52
2023/12/27 08:24:38;;;;;;;3.57;1.10;;;;;;;2.22;63.25;101919.97;5000481;28;96766;-52
2023/12/27 08:27:03;;;;;;;1.90;0.93;;;;;;;2.25;63.30;101916.41;4995387;28;96843;-52
2023/12/27 08:29:29;;;;;;;4.37;1.30;;;;;;;2.28;63.33;101917.50;4995532;28;96994;-52
2023/12/27 08:31:54;;;;;;;3.17;1.03;;;;;;;2.31;63.63;101920.13;4994823;28;96690;-52
2023/12/27 08:34:20;;;;;;;6.87;1.10;;;;;;;2.35;63.47;101915.38;4995585;28;96699;-52
2023/12/27 08:36:45;;;;;;;1.40;1.10;;;;;;;2.39;63.61;101910.63;4996525;28;96921;-52
2023/12/27 08:39:11;;;;;;;3.50;1.03;;;;;;;2.42;63.87;101907.00;4994726;28;96869;-52
2023/12/27 08:41:37;;;;;;;2.00;1.00;;;;;;;2.44;63.50;101899.16;4985524;28;101716;-51
2023/12/27 08:44:03;;;;;;;2.70;1.07;;;;;;;2.46;63.56;101896.00;4994695;28;99595;-52
2023/12/27 08:46:28;;;;;;;3.00;1.03;;;;;;;2.50;63.42;101888.50;4999213;28;97655;-52
2023/12/27 08:48:54;;;;;;;2.90;1.20;;;;;;;2.54;63.77;101889.16;4994518;28;97645;-52
2023/12/27 08:51:19;;;;;;;1.20;1.10;;;;;;;2.61;63.79;101888.19;4997265;28;97141;-52
2023/12/27 08:53:44;;;;;;;3.40;1.00;;;;;;;2.64;63.58;101888.09;4994273;28;97143;-51
2023/12/27 08:56:10;;;;;;;0.93;0.83;;;;;;;2.68;63.59;101883.31;4993064;28;97253;-52
2023/12/27 08:58:35;;;;;;;3.43;1.00;;;;;;;2.72;63.55;101870.34;4997441;28;97848;-51
2023/12/27 09:01:01;;;;;;;3.30;1.50;;;;;;;2.78;63.74;101871.31;4989222;28;97908;-52
2023/12/27 09:03:27;;;;;;;1.53;0.77;;;;;;;2.83;63.82;101867.31;4994111;28;97211;-51
2023/12/27 09:05:52;;;;;;;4.93;1.13;;;;;;;2.86;63.97;101867.19;4997854;28;97253;-51
2023/12/27 09:08:18;;;;;;;3.23;1.10;;;;;;;2.92;63.63;101859.97;4994666;28;97386;-51
2023/12/27 09:10:43;;;;;;;9.27;1.30;;;;;;;2.94;63.88;101859.56;4994418;28;96900;-52
2023/12/27 09:13:10;;;;;;;1.10;0.90;;;;;;;2.98;63.94;101854.75;4995229;28;97333;-52
2023/12/27 09:15:35;;;;;;;2.17;1.00;;;;;;;3.01;63.58;101853.91;4994133;28;97738;-51
2023/12/27 09:18:00;;;;;;;1.37;0.90;;;;;;;3.02;63.66;101867.13;4991511;28;97743;-51
2023/12/27 09:20:26;;;;;;;7.33;1.00;;;;;;;3.04;63.70;101861.22;4994158;28;98711;-52
2023/12/27 09:22:52;;;;;;;2.80;1.00;;;;;;;3.05;63.76;101870.97;4995023;28;97095;-51
2023/12/27 09:25:17;;;;;;;4.97;1.50;;;;;;;3.03;63.82;101854.22;4997028;28;96829;-51
2023/12/27 09:27:44;;;;;;;1.43;1.00;;;;;;;3.05;63.94;101847.09;4992279;28;97445;-51
2023/12/27 09:30:10;;;;;;;2.47;1.00;;;;;;;3.06;63.52;101848.66;4993721;28;97115;-52
2023/12/27 09:32:37;;;;;;;2.63;1.13;;;;;;;3.07;64.18;101855.66;4996646;28;96688;-52
2023/12/27 09:35:02;;;;;;;2.30;0.97;;;;;;;3.13;64.12;101853.16;4995612;28;97480;-52
2023/12/27 09:37:29;;;;;;;4.00;0.97;;;;;;;3.19;63.70;101851.41;4996645;28;97183;-52
2023/12/27 09:39:54;;;;;;;2.77;1.00;;;;;;;3.25;64.03;101847.69;4992384;28;99611;-51
2023/12/27 09:42:20;;;;;;;1.53;0.60;;;;;;;3.28;63.95;101848.78;4993981;28;97122;-51
2023/12/27 09:44:48;;;;;;;2.60;1.10;;;;;;;3.33;64.12;101848.25;4992036;28;96591;-51
2023/12/27 09:47:15;;;;;;;5.40;0.90;;;;;;;3.38;63.87;101842.22;4991354;28;97235;-51
2023/12/27 09:49:41;;;;;;;3.90;1.10;;;;;;;3.36;63.91;101847.34;4994892;28;97119;-51
2023/12/27 09:52:08;;;;;;;1.93;1.00;;;;;;;3.38;63.92;101842.22;4990373;28;97298;-52
2023/12/27 09:54:33;;;;;;;7.13;1.27;;;;;;;3.42;63.79;101831.94;5001446;28;97430;-51
2023/12/27 09:57:00;;;;;;;3.83;1.07;;;;;;;3.48;64.18;101830.19;4989841;28;97721;-51
2023/12/27 09:59:29;;;;;;;2.17;0.80;;;;;;;3.54;63.94;101830.41;4992588;28;96933;-52
2023/12/27 10:02:02;;;;;;;2.70;0.97;;;;;;;3.62;64.30;101818.78;4990643;28;97318;-51
2023/12/27 10:04:47;;;;;;;2.23;1.00;;;;;;;3.65;64.45;101815.19;4991934;28;97280;-52
2023/12/27 10:07:14;;;;;;;5.20;1.40;;;;;;;3.70;64.37;101814.63;4991476;28;97136;-51
2023/12/27 10:09:40;;;;;;;2.20;0.93;;;;;;;3.79;64.30;101811.22;4993607;28;97128;-52
2023/12/27 10:12:08;;;;;;;2.83;1.30;;;;;;;3.86;64.26;101814.47;4995458;28;97315;-51
2023/12/27 10:14:37;;;;;;;3.00;1.17;;;;;;;3.93;64.44;101806.03;4993356;28;96838;-51
2023/12/27 10:17:03;;;;;;;3.53;1.03;;;;;;;3.97;64.30;101811.38;4994819;28;97597;-51
2023/12/27 10:19:42;;;;;;;7.27;1.20;;;;;;;4.01;64.53;101793.63;4994396;28;98445;-51
2023/12/27 10:22:09;;;;;;;3.10;1.23;;;;;;;4.09;64.45;101794.16;4997283;28;96739;-51
2023/12/27 10:24:36;;;;;;;2.83;1.10;;;;;;;4.13;64.57;101799.50;4996432;28;100272;-51
2023/12/27 10:27:12;;;;;;;4.23;1.10;;;;;;;4.22;64.57;101796.84;4998969;28;99439;-51
2023/12/27 10:29:38;;;;;;;14.47;1.50;;;;;;;4.25;64.57;101787.75;4993716;28;97075;-51
2023/12/27 10:32:04;;;;;;;4.00;1.13;;;;;;;4.28;64.33;101779.41;4993117;28;97107;-51
2023/12/27 10:34:30;;;;;;;4.37;1.10;;;;;;;4.32;64.29;101777.28;4994640;28;97115;-51
2023/12/27 10:36:57;;;;;;;3.07;1.43;;;;;;;4.35;64.40;101778.38;4992473;28;97373;-51
2023/12/27 10:39:23;;;;;;;4.37;1.20;;;;;;;4.40;64.48;101770.38;4992636;28;96711;-51
2023/12/27 10:41:52;;;;;;;4.80;1.60;;;;;;;4.45;64.51;101763.56;4994300;28;96720;-51
2023/12/27 10:44:18;;;;;;;1.83;0.90;;;;;;;4.47;64.51;101763.88;4994647;28;97247;-52
2023/12/27 10:46:44;;;;;;;1.63;1.10;;;;;;;4.53;64.40;101762.84;4991540;28;97709;-52
2023/12/27 10:49:13;;;;;;;1.40;0.93;;;;;;;4.58;64.28;101756.03;4992009;28;98393;-51
2023/12/27 10:51:40;;;;;;;3.63;1.17;;;;;;;4.61;64.33;101744.91;4994907;28;96882;-51
2023/12/27 10:54:06;;;;;;;4.30;1.70;;;;;;;4.63;64.43;101742.50;4995212;28;96615;-51
2023/12/27 10:56:37;;;;;;;4.13;1.47;;;;;;;4.70;64.42;101741.47;4996026;28;97434;-51
2023/12/27 10:59:04;;;;;;;6.50;1.50;;;;;;;4.72;64.51;101733.56;4998892;28;97135;-51
2023/12/27 11:01:34;;;;;;;2.73;1.10;;;;;;;4.75;64.31;101727.19;4998412;28;96950;-51
2023/12/27 11:04:03;;;;;;;3.33;1.00;;;;;;;4.79;64.28;101716.88;4995206;28;97139;-52
2023/12/27 11:06:30;;;;;;;3.93;1.50;;;;;;;4.82;64.25;101709.72;4996707;28;97365;-51
2023/12/27 11:08:56;;;;;;;7.23;2.20;;;;;;;4.84;64.43;101707.28;4997916;28;98619;-51
2023/12/27 11:11:23;;;;;;;1.20;1.10;;;;;;;4.86;64.28;101713.09;4997836;28;97139;-51
2023/12/27 11:13:50;;;;;;;2.00;1.20;;;;;;;4.90;64.37;101700.00;4998403;28;97368;-51
2023/12/27 11:16:17;;;;;;;3.97;1.30;;;;;;;4.95;64.55;101691.97;4996899;28;98522;-51
2023/12/27 11:18:44;;;;;;;9.63;1.70;;;;;;;4.97;64.35;101686.78;4997368;28;97261;-51
2023/12/27 11:21:09;;;;;;;3.80;1.20;;;;;;;5.01;64.53;101681.91;4995389;28;97084;-51
2023/12/27 11:23:35;;;;;;;2.37;1.50;;;;;;;5.05;64.42;101674.31;4996738;28;97124;-51
2023/12/27 11:26:04;;;;;;;2.10;1.03;;;;;;;5.10;64.27;101675.69;4996158;28;96880;-51
2023/12/27 11:28:32;;;;;;;8.97;1.37;;;;;;;5.15;64.14;101670.34;4999605;28;98303;-53